createdAt,value
2023-05-20T00:02:14.147Z,8.02
2023-05-20T00:04:42.112Z,8.35
2023-05-20T00:07:09.164Z,7.97
2023-05-20T00:09:35.896Z,7.72
2023-05-20T00:12:02.816Z,7.47
2023-05-20T00:14:29.585Z,7.00
2023-05-20T00:16:56.454Z,7.10
2023-05-20T00:19:23.455Z,7.63
2023-05-20T00:21:50.463Z,8.73
2023-05-20T00:24:17.206Z,7.72
2023-05-20T00:26:44.009Z,7.82
2023-05-20T00:29:11.029Z,6.60
2023-05-20T00:31:37.847Z,6.60
2023-05-20T00:34:05.502Z,7.13
2023-05-20T00:36:32.265Z,5.97
2023-05-20T00:38:59.132Z,6.45
2023-05-20T00:41:26.223Z,7.30
2023-05-20T00:43:56.569Z,7.32
2023-05-20T00:46:25.210Z,7.68
2023-05-20T00:48:52.718Z,7.43
2023-05-20T00:51:20.559Z,7.20
2023-05-20T00:53:47.880Z,7.60
2023-05-20T00:56:14.694Z,7.32
2023-05-20T00:58:41.624Z,6.68
2023-05-20T01:01:08.379Z,7.75
2023-05-20T01:03:35.554Z,7.80
2023-05-20T01:06:03.207Z,6.28
2023-05-20T01:08:30.202Z,6.40
2023-05-20T01:11:26.109Z,7.18
2023-05-20T01:14:06.532Z,7.07
2023-05-20T01:16:35.495Z,7.63
2023-05-20T01:19:03.916Z,7.22
2023-05-20T01:21:32.315Z,7.53
2023-05-20T01:23:59.126Z,8.25
2023-05-20T01:26:27.117Z,7.25
2023-05-20T01:28:54.375Z,7.75
2023-05-20T01:31:24.830Z,8.00
2023-05-20T01:33:56.350Z,8.15
2023-05-20T01:36:23.629Z,8.43
2023-05-20T01:38:51.068Z,7.65
2023-05-20T01:41:18.271Z,7.72
2023-05-20T01:43:45.542Z,8.82
2023-05-20T01:46:12.431Z,8.77
2023-05-20T01:48:39.213Z,8.57
2023-05-20T01:51:06.030Z,8.55
2023-05-20T01:53:33.068Z,8.10
2023-05-20T01:55:59.949Z,8.45
2023-05-20T01:58:26.878Z,8.23
2023-05-20T02:00:53.606Z,7.70
2023-05-20T02:03:20.388Z,7.93
2023-05-20T02:05:47.164Z,7.80
2023-05-20T02:08:13.912Z,7.75
2023-05-20T02:10:40.651Z,7.43
2023-05-20T02:13:07.405Z,8.00
2023-05-20T02:15:34.687Z,8.35
2023-05-20T02:18:02.498Z,8.48
2023-05-20T02:20:29.488Z,8.13
2023-05-20T02:22:56.387Z,8.30
2023-05-20T02:25:23.127Z,8.85
2023-05-20T02:27:49.908Z,8.45
2023-05-20T02:30:17.323Z,8.60
2023-05-20T02:32:44.136Z,9.35
2023-05-20T02:35:11.717Z,9.43
2023-05-20T02:37:39.440Z,8.30
2023-05-20T02:40:06.979Z,8.70
2023-05-20T02:42:33.704Z,8.93
2023-05-20T02:45:00.904Z,8.38
2023-05-20T02:47:27.662Z,8.20
2023-05-20T02:49:54.461Z,7.63
2023-05-20T02:52:22.016Z,8.43
2023-05-20T02:54:48.884Z,7.95
2023-05-20T02:57:16.278Z,8.18
2023-05-20T02:59:43.022Z,9.05
2023-05-20T03:02:09.751Z,8.15
2023-05-20T03:04:38.768Z,9.30
2023-05-20T03:07:07.592Z,9.27
2023-05-20T03:09:34.394Z,8.43
2023-05-20T03:12:01.198Z,9.25
2023-05-20T03:14:27.943Z,8.43
2023-05-20T03:16:57.552Z,8.18
2023-05-20T03:19:24.419Z,9.07
2023-05-20T03:21:51.303Z,8.95
2023-05-20T03:24:18.242Z,8.30
2023-05-20T03:26:47.078Z,8.48
2023-05-20T03:29:14.174Z,8.32
2023-05-20T03:31:41.591Z,8.15
2023-05-20T03:34:08.465Z,7.90
2023-05-20T03:36:35.592Z,8.00
2023-05-20T03:39:04.188Z,8.02
2023-05-20T03:41:32.840Z,7.90
2023-05-20T03:43:59.623Z,8.77
2023-05-20T03:46:27.027Z,8.73
2023-05-20T03:48:53.794Z,8.75
2023-05-20T03:51:20.523Z,8.73
2023-05-20T03:53:48.484Z,8.43
2023-05-20T03:56:15.300Z,8.63
2023-05-20T03:58:42.974Z,8.15
2023-05-20T04:01:11.155Z,8.20
2023-05-20T04:03:37.975Z,7.78
2023-05-20T04:06:04.853Z,8.68
2023-05-20T04:08:31.801Z,8.70
2023-05-20T04:10:58.538Z,8.73
2023-05-20T04:13:25.895Z,8.95
2023-05-20T04:15:53.054Z,8.90
2023-05-20T04:18:19.972Z,9.18
2023-05-20T04:20:47.214Z,8.27
2023-05-20T04:23:14.867Z,8.90
2023-05-20T04:25:42.191Z,8.98
2023-05-20T04:28:10.604Z,8.45
2023-05-20T04:30:37.421Z,8.02
2023-05-20T04:33:04.357Z,8.43
2023-05-20T04:35:32.105Z,8.50
2023-05-20T04:38:02.779Z,8.65
2023-05-20T04:40:29.748Z,10.13
2023-05-20T04:43:00.786Z,12.98
2023-05-20T04:45:27.637Z,10.70
2023-05-20T04:47:54.430Z,11.48
2023-05-20T04:50:21.936Z,13.95
2023-05-20T04:52:49.470Z,12.65
2023-05-20T04:55:16.271Z,11.43
2023-05-20T04:57:43.449Z,11.55
2023-05-20T05:00:13.207Z,11.45
2023-05-20T05:02:40.855Z,11.93
2023-05-20T05:05:08.390Z,12.73
2023-05-20T05:07:35.372Z,11.90
2023-05-20T05:10:02.248Z,12.50
2023-05-20T05:12:30.944Z,13.70
2023-05-20T05:14:59.169Z,16.00
2023-05-20T05:17:26.934Z,12.45
2023-05-20T05:19:53.787Z,12.35
2023-05-20T05:22:20.644Z,16.70
2023-05-20T05:24:47.390Z,16.08
2023-05-20T05:27:14.333Z,15.82
2023-05-20T05:29:41.032Z,13.25
2023-05-20T05:32:07.961Z,16.23
2023-05-20T05:34:34.748Z,12.63
2023-05-20T05:37:01.495Z,11.48
2023-05-20T05:39:28.309Z,10.65
2023-05-20T05:41:56.159Z,11.38
2023-05-20T05:44:23.142Z,13.60
2023-05-20T05:46:49.998Z,11.98
2023-05-20T05:49:17.252Z,12.45
2023-05-20T05:51:44.502Z,11.63
2023-05-20T05:54:11.937Z,11.77
2023-05-20T05:56:38.899Z,11.98
2023-05-20T05:59:05.971Z,11.55
2023-05-20T06:01:32.824Z,10.68
2023-05-20T06:03:59.943Z,10.65
2023-05-20T06:06:26.963Z,10.63
2023-05-20T06:08:53.994Z,10.60
2023-05-20T06:11:21.847Z,10.65
2023-05-20T06:13:48.629Z,10.77
2023-05-20T06:16:16.565Z,10.82
2023-05-20T06:18:43.677Z,10.50
2023-05-20T06:21:10.499Z,9.75
2023-05-20T06:23:37.336Z,11.65
2023-05-20T06:26:06.638Z,10.73
2023-05-20T06:28:33.523Z,10.25
2023-05-20T06:31:00.782Z,10.13
2023-05-20T06:33:31.110Z,9.93
2023-05-20T06:36:04.189Z,11.60
2023-05-20T06:38:31.049Z,10.77
2023-05-20T06:40:57.827Z,10.48
2023-05-20T06:43:24.561Z,9.70
2023-05-20T06:46:03.590Z,9.55
2023-05-20T06:48:38.900Z,9.18
2023-05-20T06:51:09.321Z,9.13
2023-05-20T06:53:36.565Z,8.80
2023-05-20T06:56:03.603Z,8.68
2023-05-20T06:58:31.697Z,8.95
2023-05-20T07:00:58.440Z,9.00
2023-05-20T07:03:26.173Z,8.85
2023-05-20T07:05:53.031Z,9.18
2023-05-20T07:08:20.547Z,8.07
2023-05-20T07:10:47.302Z,9.02
2023-05-20T07:13:17.779Z,8.48
2023-05-20T07:15:47.789Z,8.23
2023-05-20T07:18:16.112Z,9.23
2023-05-20T07:20:45.118Z,9.05
2023-05-20T07:23:23.788Z,9.32
2023-05-20T07:25:53.687Z,9.20
2023-05-20T07:28:22.296Z,7.88
2023-05-20T07:30:54.173Z,8.55
2023-05-20T07:33:27.657Z,8.48
2023-05-20T07:35:54.588Z,8.05
2023-05-20T07:38:22.405Z,9.18
2023-05-20T07:40:55.994Z,8.70
2023-05-20T07:43:22.900Z,8.38
2023-05-20T07:45:49.815Z,9.15
2023-05-20T07:48:16.606Z,8.32
2023-05-20T07:50:44.585Z,8.48
2023-05-20T07:53:12.065Z,7.22
2023-05-20T07:55:39.320Z,8.13
2023-05-20T07:58:06.910Z,7.45
2023-05-20T08:00:35.472Z,6.72
2023-05-20T08:03:05.088Z,7.72
2023-05-20T08:05:42.148Z,7.55
2023-05-20T08:08:10.475Z,7.22
2023-05-20T08:10:49.020Z,6.68
2023-05-20T08:13:15.781Z,7.13
2023-05-20T08:15:42.610Z,6.78
2023-05-20T08:18:09.582Z,6.72
2023-05-20T08:20:37.409Z,6.07
2023-05-20T08:23:04.126Z,6.60
2023-05-20T08:25:31.186Z,7.05
2023-05-20T08:27:58.143Z,7.10
2023-05-20T08:30:25.564Z,6.78
2023-05-20T08:32:52.874Z,6.72
2023-05-20T08:35:22.451Z,6.60
2023-05-20T08:37:50.913Z,6.50
2023-05-20T08:40:17.921Z,6.85
2023-05-20T08:42:44.844Z,5.97
2023-05-20T08:45:15.171Z,7.18
2023-05-20T08:47:43.495Z,6.78
2023-05-20T08:50:14.530Z,7.15
2023-05-20T08:52:47.059Z,7.05
2023-05-20T08:57:51.351Z,6.90
2023-05-20T09:00:18.560Z,7.13
2023-05-20T09:02:46.327Z,7.22
2023-05-20T09:05:13.919Z,7.18
2023-05-20T09:07:42.637Z,8.18
2023-05-20T09:10:10.672Z,6.88
2023-05-20T09:12:38.633Z,7.82
2023-05-20T09:15:06.367Z,7.47
2023-05-20T09:17:36.811Z,7.80
2023-05-20T09:20:11.075Z,7.60
2023-05-20T09:22:39.568Z,7.78
2023-05-20T09:25:06.655Z,7.43
2023-05-20T09:27:34.000Z,7.18
2023-05-20T09:30:00.973Z,8.23
2023-05-20T09:32:28.957Z,6.90
2023-05-20T09:34:55.788Z,6.20
2023-05-20T09:37:24.467Z,6.30
2023-05-20T09:39:59.578Z,7.22
2023-05-20T09:42:40.277Z,6.88
2023-05-20T09:45:09.401Z,7.22
2023-05-20T09:47:42.969Z,6.90
2023-05-20T09:50:10.303Z,6.40
2023-05-20T09:52:38.660Z,6.43
2023-05-20T09:55:10.454Z,7.13
2023-05-20T09:57:37.888Z,7.28
2023-05-20T10:00:08.680Z,7.35
2023-05-20T10:02:52.433Z,7.18
2023-05-20T10:05:27.079Z,6.93
2023-05-20T10:08:22.244Z,6.43
2023-05-20T10:10:54.561Z,6.38
2023-05-20T10:13:44.812Z,6.20
2023-05-20T10:16:38.774Z,5.82
2023-05-20T10:19:11.984Z,6.43
2023-05-20T10:21:38.854Z,6.05
2023-05-20T10:24:09.987Z,6.30
2023-05-20T10:26:38.300Z,6.47
2023-05-20T10:29:18.159Z,6.25
2023-05-20T10:31:49.350Z,6.13
2023-05-20T10:34:18.007Z,6.03
2023-05-20T10:36:53.851Z,6.05
2023-05-20T10:39:29.927Z,6.78
2023-05-20T10:42:14.843Z,6.43
2023-05-20T10:44:45.449Z,6.03
2023-05-20T10:49:49.217Z,5.82
2023-05-20T10:52:17.838Z,6.32
2023-05-20T10:54:56.205Z,6.03
2023-05-20T10:57:24.229Z,5.82
2023-05-20T10:59:51.373Z,5.25
2023-05-20T11:02:18.760Z,5.78
2023-05-20T11:04:47.122Z,5.88
2023-05-20T11:07:24.224Z,6.40
2023-05-20T11:09:51.204Z,6.10
2023-05-20T11:12:18.016Z,5.72
2023-05-20T11:14:44.760Z,5.07
2023-05-20T11:17:14.363Z,5.97
2023-05-20T11:19:41.550Z,6.35
2023-05-20T11:22:08.551Z,5.38
2023-05-20T11:24:35.543Z,5.43
2023-05-20T11:27:02.511Z,5.50
2023-05-20T11:29:32.132Z,5.80
2023-05-20T11:31:59.962Z,5.80
2023-05-20T11:34:33.105Z,6.35
2023-05-20T11:36:59.832Z,7.25
2023-05-20T11:39:30.045Z,6.80
2023-05-20T11:41:57.983Z,7.25
2023-05-20T11:44:25.462Z,7.18
2023-05-20T11:46:58.824Z,6.32
2023-05-20T11:49:25.563Z,7.18
2023-05-20T11:51:52.306Z,7.20
2023-05-20T11:54:22.591Z,7.05
2023-05-20T11:56:49.718Z,6.43
2023-05-20T11:59:16.436Z,7.07
2023-05-20T12:01:43.471Z,7.60
2023-05-20T12:04:10.679Z,7.55
2023-05-20T12:06:37.626Z,7.45
2023-05-20T12:09:08.683Z,8.45
2023-05-20T12:11:37.067Z,8.20
2023-05-20T12:14:04.258Z,8.40
2023-05-20T12:16:32.707Z,8.60
2023-05-20T12:18:59.832Z,8.40
2023-05-20T12:21:27.070Z,9.38
2023-05-20T12:23:57.637Z,8.60
2023-05-20T12:26:26.037Z,8.65
2023-05-20T12:28:53.357Z,8.65
2023-05-20T12:31:20.658Z,8.60
2023-05-20T12:33:47.797Z,9.18
2023-05-20T12:36:15.011Z,7.80
2023-05-20T12:38:41.885Z,8.35
2023-05-20T12:41:08.801Z,9.30
2023-05-20T12:43:38.556Z,8.00
2023-05-20T12:46:05.858Z,7.97
2023-05-20T12:48:32.743Z,6.53
2023-05-20T12:50:59.819Z,7.25
2023-05-20T12:53:26.528Z,6.47
2023-05-20T12:55:53.595Z,5.65
2023-05-20T12:58:20.487Z,5.75
2023-05-20T13:00:47.216Z,5.13
2023-05-20T13:03:14.119Z,6.00
2023-05-20T13:05:40.962Z,5.05
2023-05-20T13:08:09.031Z,5.18
2023-05-20T13:10:36.243Z,4.90
2023-05-20T13:13:05.823Z,5.63
2023-05-20T13:15:33.446Z,5.57
2023-05-20T13:18:01.447Z,5.50
2023-05-20T13:20:30.092Z,4.97
2023-05-20T13:22:56.854Z,4.57
2023-05-20T13:25:23.707Z,5.10
2023-05-20T13:27:50.845Z,4.38
2023-05-20T13:30:17.739Z,5.50
2023-05-20T13:32:44.571Z,5.07
2023-05-20T13:35:12.900Z,4.80
2023-05-20T13:37:39.647Z,4.20
2023-05-20T13:40:07.234Z,5.07
2023-05-20T13:42:33.974Z,5.07
2023-05-20T13:45:00.799Z,5.00
2023-05-20T13:47:27.669Z,3.63
2023-05-20T13:49:54.570Z,3.92
2023-05-20T13:52:21.357Z,6.68
2023-05-20T13:54:48.724Z,4.30
2023-05-20T13:57:15.852Z,3.28
2023-05-20T13:59:42.568Z,3.30
2023-05-20T14:02:09.420Z,3.40
2023-05-20T14:04:39.243Z,2.92
2023-05-20T14:07:07.771Z,3.42
2023-05-20T14:09:36.338Z,2.85
2023-05-20T14:12:03.133Z,3.40
2023-05-20T14:14:29.896Z,3.60
2023-05-20T14:16:56.650Z,2.97
2023-05-20T14:19:23.428Z,2.78
2023-05-20T14:21:50.277Z,2.95
2023-05-20T14:24:17.112Z,2.47
2023-05-20T14:26:43.895Z,2.17
2023-05-20T14:29:10.789Z,2.15
2023-05-20T14:31:39.288Z,2.17
2023-05-20T14:34:06.340Z,2.22
2023-05-20T14:36:33.094Z,2.08
2023-05-20T14:38:59.862Z,2.00
2023-05-20T14:41:26.588Z,2.17
2023-05-20T14:43:53.322Z,1.98
2023-05-20T14:46:20.121Z,2.00
2023-05-20T14:48:46.895Z,2.10
2023-05-20T14:51:13.650Z,1.80
2023-05-20T14:53:40.462Z,1.80
2023-05-20T14:56:07.190Z,2.00
2023-05-20T14:58:34.901Z,2.20
2023-05-20T15:01:01.749Z,1.90
2023-05-20T15:03:28.731Z,1.95
2023-05-20T15:05:55.832Z,2.10
2023-05-20T15:08:22.559Z,1.80
2023-05-20T15:10:50.394Z,1.88
2023-05-20T15:13:17.257Z,2.40
2023-05-20T15:15:44.508Z,1.85
2023-05-20T15:18:11.650Z,2.10
2023-05-20T15:20:38.522Z,1.88
2023-05-20T15:23:05.371Z,1.95
2023-05-20T15:25:32.261Z,2.10
2023-05-20T15:27:59.062Z,2.10
2023-05-20T15:30:25.788Z,1.85
2023-05-20T15:32:52.581Z,1.90
2023-05-20T15:35:19.432Z,1.85
2023-05-20T15:37:46.133Z,2.08
2023-05-20T15:40:12.925Z,2.38
2023-05-20T15:42:39.645Z,2.35
2023-05-20T15:45:07.260Z,2.28
2023-05-20T15:47:34.094Z,2.00
2023-05-20T15:50:05.102Z,2.10
2023-05-20T15:52:31.866Z,2.10
2023-05-20T15:54:58.805Z,2.40
2023-05-20T15:57:25.674Z,2.40
2023-05-20T15:59:52.486Z,2.60
2023-05-20T16:02:19.366Z,2.30
2023-05-20T16:04:46.577Z,2.38
2023-05-20T16:07:14.260Z,2.72
2023-05-20T16:09:41.140Z,2.90
2023-05-20T16:12:07.854Z,3.00
2023-05-20T16:14:34.616Z,3.28
2023-05-20T16:17:01.350Z,2.70
2023-05-20T16:19:28.494Z,3.10
2023-05-20T16:21:56.754Z,3.50
2023-05-20T16:24:23.446Z,3.50
2023-05-20T16:26:50.181Z,3.55
2023-05-20T16:29:16.937Z,3.65
2023-05-20T16:31:46.617Z,3.70
2023-05-20T16:34:14.889Z,3.40
2023-05-20T16:36:41.612Z,3.97
2023-05-20T16:39:08.414Z,5.03
2023-05-20T16:41:35.120Z,5.85
2023-05-20T16:44:01.957Z,5.40
2023-05-20T16:46:28.856Z,4.72
2023-05-20T16:48:55.652Z,3.97
2023-05-20T16:51:22.651Z,4.05
2023-05-20T16:53:49.356Z,3.90
2023-05-20T16:56:16.200Z,4.00
2023-05-20T16:58:42.974Z,4.35
2023-05-20T17:01:09.748Z,4.15
2023-05-20T17:03:36.499Z,4.15
2023-05-20T17:06:03.270Z,4.88
2023-05-20T17:08:29.946Z,4.43
2023-05-20T17:10:57.558Z,4.55
2023-05-20T17:13:24.270Z,4.60
2023-05-20T17:15:51.069Z,4.65
2023-05-20T17:18:17.798Z,5.20
2023-05-20T17:20:44.644Z,5.45
2023-05-20T17:23:11.357Z,5.10
2023-05-20T17:25:38.082Z,5.40
2023-05-20T17:28:04.915Z,5.07
2023-05-20T17:30:31.803Z,5.53
2023-05-20T17:32:58.751Z,5.18
2023-05-20T17:35:25.874Z,4.95
2023-05-20T17:37:53.543Z,5.25
2023-05-20T17:40:20.630Z,5.38
2023-05-20T17:42:50.165Z,5.35
2023-05-20T17:45:16.970Z,5.55
2023-05-20T17:47:43.737Z,5.13
2023-05-20T17:50:10.952Z,6.00
2023-05-20T17:52:37.868Z,5.30
2023-05-20T17:55:05.671Z,5.28
2023-05-20T17:57:33.060Z,5.75
2023-05-20T17:59:59.782Z,5.70
2023-05-20T18:02:27.072Z,5.40
2023-05-20T18:04:54.079Z,5.97
2023-05-20T18:07:21.108Z,6.15
2023-05-20T18:09:48.027Z,5.70
2023-05-20T18:12:14.742Z,5.43
2023-05-20T18:14:41.495Z,6.07
2023-05-20T18:17:08.260Z,6.57
2023-05-20T18:19:35.451Z,6.25
2023-05-20T18:22:03.000Z,6.05
2023-05-20T18:24:29.886Z,5.65
2023-05-20T18:26:57.362Z,5.88
2023-05-20T18:29:26.710Z,6.80
2023-05-20T18:31:53.727Z,6.70
2023-05-20T18:34:20.881Z,6.10
2023-05-20T18:36:47.766Z,6.80
2023-05-20T18:39:20.163Z,6.78
2023-05-20T18:41:47.769Z,7.03
2023-05-20T18:44:15.966Z,6.68
2023-05-20T18:46:43.160Z,6.50
2023-05-20T18:49:10.655Z,6.75
2023-05-20T18:51:39.966Z,6.30
2023-05-20T18:54:07.167Z,6.90
2023-05-20T18:56:34.347Z,6.90
2023-05-20T18:59:01.248Z,7.68
2023-05-20T19:01:28.110Z,6.50
2023-05-20T19:03:54.926Z,6.78
2023-05-20T19:06:21.938Z,7.10
2023-05-20T19:08:49.487Z,7.65
2023-05-20T19:11:16.327Z,7.97
2023-05-20T19:13:43.147Z,7.90
2023-05-20T19:16:10.053Z,8.23
2023-05-20T19:18:36.829Z,8.18
2023-05-20T19:21:03.677Z,8.20
2023-05-20T19:23:30.550Z,7.85
2023-05-20T19:25:57.288Z,8.90
2023-05-20T19:28:24.010Z,8.45
2023-05-20T19:30:50.970Z,8.10
2023-05-20T19:33:18.195Z,9.00
2023-05-20T19:35:44.901Z,8.95
2023-05-20T19:38:12.383Z,8.38
2023-05-20T19:40:39.155Z,8.15
2023-05-20T19:43:06.300Z,8.10
2023-05-20T19:45:33.133Z,8.60
2023-05-20T19:48:00.047Z,8.13
2023-05-20T19:50:26.842Z,8.07
2023-05-20T19:52:53.622Z,8.05
2023-05-20T19:55:20.358Z,8.77
2023-05-20T19:57:53.018Z,8.35
2023-05-20T20:00:21.376Z,7.75
2023-05-20T20:02:48.604Z,8.27
2023-05-20T20:05:15.669Z,8.38
2023-05-20T20:07:42.519Z,7.68
2023-05-20T20:10:10.392Z,9.00
2023-05-20T20:12:37.203Z,10.07
2023-05-20T20:15:04.788Z,9.57
2023-05-20T20:17:33.609Z,9.75
2023-05-20T20:20:00.878Z,9.60
2023-05-20T20:22:27.755Z,8.60
2023-05-20T20:24:54.465Z,9.02
2023-05-20T20:27:23.646Z,9.35
2023-05-20T20:29:50.490Z,13.73
2023-05-20T20:32:17.355Z,10.68
2023-05-20T20:34:44.124Z,10.35
2023-05-20T20:37:14.550Z,10.07
2023-05-20T20:39:41.330Z,9.40
2023-05-20T20:42:08.106Z,9.23
2023-05-20T20:44:34.918Z,9.23
2023-05-20T20:47:03.951Z,10.10
2023-05-20T20:49:31.933Z,8.82
2023-05-20T20:51:58.984Z,9.27
2023-05-20T20:54:26.353Z,8.63
2023-05-20T20:56:56.559Z,8.77
2023-05-20T20:59:26.328Z,9.38
2023-05-20T21:01:53.640Z,9.43
2023-05-20T21:04:20.776Z,9.18
2023-05-20T21:06:47.580Z,10.13
2023-05-20T21:09:15.189Z,9.43
2023-05-20T21:11:42.436Z,9.25
2023-05-20T21:14:09.843Z,9.38
2023-05-20T21:16:36.937Z,8.93
2023-05-20T21:19:03.882Z,9.05
2023-05-20T21:21:31.568Z,8.65
2023-05-20T21:23:58.354Z,9.52
2023-05-20T21:26:25.729Z,9.13
2023-05-20T21:28:52.758Z,10.00
2023-05-20T21:31:22.714Z,9.52
2023-05-20T21:33:49.500Z,9.82
2023-05-20T21:36:16.446Z,10.43
2023-05-20T21:38:43.200Z,9.52
2023-05-20T21:41:09.967Z,9.45
2023-05-20T21:43:37.354Z,9.57
2023-05-20T21:46:04.625Z,9.48
2023-05-20T21:48:31.592Z,9.85
2023-05-20T21:50:58.288Z,10.40
2023-05-20T21:53:25.164Z,10.20
2023-05-20T21:55:51.953Z,9.57
2023-05-20T21:58:18.655Z,9.75
2023-05-20T22:00:45.391Z,9.75
2023-05-20T22:03:13.019Z,10.63
2023-05-20T22:05:40.860Z,9.85
2023-05-20T22:08:07.718Z,9.43
2023-05-20T22:10:36.442Z,9.05
2023-05-20T22:13:03.446Z,8.85
2023-05-20T22:15:31.447Z,8.85
2023-05-20T22:17:58.638Z,9.68
2023-05-20T22:20:30.403Z,9.15
2023-05-20T22:22:57.146Z,9.03
2023-05-20T22:25:23.865Z,10.20
2023-05-20T22:27:50.634Z,10.05
2023-05-20T22:30:17.604Z,9.68
2023-05-20T22:32:44.497Z,8.93
2023-05-20T22:35:13.058Z,9.82
2023-05-20T22:37:39.824Z,9.63
2023-05-20T22:40:07.380Z,9.98
2023-05-20T22:42:34.042Z,9.60
2023-05-20T22:45:00.874Z,10.52
2023-05-20T22:47:28.982Z,9.55
2023-05-20T22:49:57.367Z,9.18
2023-05-20T22:52:25.331Z,9.50
2023-05-20T22:54:52.159Z,8.23
2023-05-20T22:57:18.866Z,7.72
2023-05-20T22:59:45.604Z,8.30
2023-05-20T23:02:12.288Z,9.60
2023-05-20T23:04:39.050Z,9.55
2023-05-20T23:07:06.391Z,10.68
2023-05-20T23:09:33.159Z,9.52
2023-05-20T23:12:00.196Z,9.68
2023-05-20T23:14:27.321Z,10.10
2023-05-20T23:16:54.131Z,9.48
2023-05-20T23:19:20.977Z,8.98
2023-05-20T23:21:47.847Z,9.13
2023-05-20T23:24:15.244Z,9.77
2023-05-20T23:26:42.966Z,9.38
2023-05-20T23:29:10.416Z,8.57
2023-05-20T23:31:37.164Z,8.57
2023-05-20T23:34:04.048Z,9.30
2023-05-20T23:36:34.278Z,9.60
2023-05-20T23:39:02.190Z,9.88
2023-05-20T23:41:28.945Z,9.27
2023-05-20T23:43:55.797Z,9.77
2023-05-20T23:46:22.654Z,10.25
2023-05-20T23:48:49.901Z,10.07
2023-05-20T23:51:16.650Z,10.95
2023-05-20T23:53:44.201Z,10.65
2023-05-20T23:56:11.272Z,9.32
2023-05-20T23:58:38.044Z,9.32
